sensor_id;sensor_type;location;lat;lon;timestamp;P1;durP1;ratioP1;P2;durP2;ratioP2
76477;SDS011;65309;49.790;18.972;2024-02-21T00:02:32;6.97;;;3.67;;
76477;SDS011;65309;49.790;18.972;2024-02-21T00:07:34;8.40;;;3.38;;
76477;SDS011;65309;49.790;18.972;2024-02-21T00:12:38;6.43;;;2.95;;
76477;SDS011;65309;49.790;18.972;2024-02-21T00:17:40;6.30;;;2.83;;
76477;SDS011;65309;49.790;18.972;2024-02-21T00:22:42;5.57;;;2.72;;
76477;SDS011;65309;49.790;18.972;2024-02-21T00:27:46;8.43;;;3.53;;
76477;SDS011;65309;49.790;18.972;2024-02-21T00:37:50;10.27;;;3.78;;
76477;SDS011;65309;49.790;18.972;2024-02-21T00:42:54;6.82;;;2.58;;
76477;SDS011;65309;49.790;18.972;2024-02-21T00:47:56;10.65;;;3.55;;
76477;SDS011;65309;49.790;18.972;2024-02-21T00:52:58;8.00;;;3.00;;
76477;SDS011;65309;49.790;18.972;2024-02-21T00:58:02;8.98;;;3.10;;
76477;SDS011;65309;49.790;18.972;2024-02-21T01:03:05;10.63;;;3.92;;
76477;SDS011;65309;49.790;18.972;2024-02-21T01:08:07;6.00;;;2.40;;
76477;SDS011;65309;49.790;18.972;2024-02-21T01:13:10;7.45;;;3.33;;
76477;SDS011;65309;49.790;18.972;2024-02-21T01:18:13;7.40;;;2.58;;
76477;SDS011;65309;49.790;18.972;2024-02-21T01:23:15;11.75;;;3.20;;
76477;SDS011;65309;49.790;18.972;2024-02-21T01:28:19;11.88;;;2.92;;
76477;SDS011;65309;49.790;18.972;2024-02-21T01:33:23;8.88;;;2.72;;
76477;SDS011;65309;49.790;18.972;2024-02-21T01:38:25;7.85;;;2.63;;
76477;SDS011;65309;49.790;18.972;2024-02-21T01:43:29;7.80;;;3.10;;
76477;SDS011;65309;49.790;18.972;2024-02-21T01:48:31;16.52;;;2.97;;
76477;SDS011;65309;49.790;18.972;2024-02-21T01:53:34;10.20;;;2.65;;
76477;SDS011;65309;49.790;18.972;2024-02-21T01:58:40;8.77;;;2.63;;
76477;SDS011;65309;49.790;18.972;2024-02-21T02:03:44;5.90;;;2.25;;
76477;SDS011;65309;49.790;18.972;2024-02-21T02:08:47;6.55;;;2.75;;
76477;SDS011;65309;49.790;18.972;2024-02-21T02:13:51;5.47;;;1.70;;
76477;SDS011;65309;49.790;18.972;2024-02-21T02:18:53;6.70;;;2.72;;
76477;SDS011;65309;49.790;18.972;2024-02-21T02:23:58;9.00;;;2.60;;
76477;SDS011;65309;49.790;18.972;2024-02-21T02:29:01;8.85;;;1.55;;
76477;SDS011;65309;49.790;18.972;2024-02-21T02:34:21;2.58;;;1.75;;
76477;SDS011;65309;49.790;18.972;2024-02-21T02:39:41;4.55;;;2.45;;
76477;SDS011;65309;49.790;18.972;2024-02-21T02:45:01;4.72;;;2.28;;
76477;SDS011;65309;49.790;18.972;2024-02-21T02:50:22;3.35;;;1.58;;
76477;SDS011;65309;49.790;18.972;2024-02-21T02:55:43;8.35;;;2.78;;
76477;SDS011;65309;49.790;18.972;2024-02-21T03:01:03;4.05;;;1.65;;
76477;SDS011;65309;49.790;18.972;2024-02-21T03:06:23;8.00;;;2.22;;
76477;SDS011;65309;49.790;18.972;2024-02-21T03:11:44;3.50;;;1.33;;
76477;SDS011;65309;49.790;18.972;2024-02-21T03:16:46;5.95;;;1.70;;
76477;SDS011;65309;49.790;18.972;2024-02-21T03:21:48;7.18;;;2.45;;
76477;SDS011;65309;49.790;18.972;2024-02-21T03:26:52;5.97;;;2.63;;
76477;SDS011;65309;49.790;18.972;2024-02-21T03:31:55;8.65;;;2.35;;
76477;SDS011;65309;49.790;18.972;2024-02-21T03:36:57;6.47;;;2.65;;
76477;SDS011;65309;49.790;18.972;2024-02-21T03:42:00;6.35;;;2.22;;
76477;SDS011;65309;49.790;18.972;2024-02-21T03:47:06;7.80;;;2.20;;
76477;SDS011;65309;49.790;18.972;2024-02-21T03:52:08;4.63;;;2.00;;
76477;SDS011;65309;49.790;18.972;2024-02-21T03:57:12;8.23;;;2.72;;
76477;SDS011;65309;49.790;18.972;2024-02-21T04:02:14;4.22;;;1.58;;
76477;SDS011;65309;49.790;18.972;2024-02-21T04:07:16;3.58;;;1.77;;
76477;SDS011;65309;49.790;18.972;2024-02-21T04:12:20;4.65;;;1.60;;
76477;SDS011;65309;49.790;18.972;2024-02-21T04:17:22;6.05;;;2.30;;
76477;SDS011;65309;49.790;18.972;2024-02-21T04:22:24;1.25;;;0.90;;
76477;SDS011;65309;49.790;18.972;2024-02-21T04:27:28;8.43;;;2.13;;
76477;SDS011;65309;49.790;18.972;2024-02-21T04:32:30;3.63;;;2.05;;
76477;SDS011;65309;49.790;18.972;2024-02-21T04:37:32;4.20;;;2.28;;
76477;SDS011;65309;49.790;18.972;2024-02-21T04:42:36;8.60;;;3.35;;
76477;SDS011;65309;49.790;18.972;2024-02-21T04:47:38;11.38;;;3.47;;
76477;SDS011;65309;49.790;18.972;2024-02-21T04:52:40;10.98;;;3.08;;
76477;SDS011;65309;49.790;18.972;2024-02-21T04:57:44;11.00;;;4.22;;
76477;SDS011;65309;49.790;18.972;2024-02-21T05:02:46;5.53;;;3.13;;
76477;SDS011;65309;49.790;18.972;2024-02-21T05:07:48;6.85;;;2.45;;
76477;SDS011;65309;49.790;18.972;2024-02-21T05:12:52;6.00;;;2.10;;
76477;SDS011;65309;49.790;18.972;2024-02-21T05:17:54;3.53;;;2.05;;
76477;SDS011;65309;49.790;18.972;2024-02-21T05:22:56;2.53;;;1.92;;
76477;SDS011;65309;49.790;18.972;2024-02-21T05:28:00;5.00;;;2.05;;
76477;SDS011;65309;49.790;18.972;2024-02-21T05:33:04;4.97;;;2.22;;
76477;SDS011;65309;49.790;18.972;2024-02-21T05:38:07;3.50;;;1.73;;
76477;SDS011;65309;49.790;18.972;2024-02-21T05:43:14;2.85;;;1.88;;
76477;SDS011;65309;49.790;18.972;2024-02-21T05:53:19;5.40;;;1.17;;
76477;SDS011;65309;49.790;18.972;2024-02-21T05:58:22;4.55;;;2.08;;
76477;SDS011;65309;49.790;18.972;2024-02-21T06:03:25;4.65;;;2.13;;
76477;SDS011;65309;49.790;18.972;2024-02-21T06:08:27;5.28;;;2.35;;
76477;SDS011;65309;49.790;18.972;2024-02-21T06:13:31;2.22;;;1.63;;
76477;SDS011;65309;49.790;18.972;2024-02-21T06:18:35;5.80;;;2.10;;
76477;SDS011;65309;49.790;18.972;2024-02-21T06:23:38;4.07;;;2.08;;
76477;SDS011;65309;49.790;18.972;2024-02-21T06:28:41;2.92;;;1.88;;
76477;SDS011;65309;49.790;18.972;2024-02-21T06:33:44;7.82;;;2.13;;
76477;SDS011;65309;49.790;18.972;2024-02-21T06:38:46;4.18;;;1.52;;
76477;SDS011;65309;49.790;18.972;2024-02-21T06:43:50;4.65;;;1.88;;
76477;SDS011;65309;49.790;18.972;2024-02-21T06:48:52;5.88;;;2.00;;
76477;SDS011;65309;49.790;18.972;2024-02-21T06:53:55;5.28;;;1.77;;
76477;SDS011;65309;49.790;18.972;2024-02-21T06:58:58;3.13;;;2.08;;
76477;SDS011;65309;49.790;18.972;2024-02-21T07:04:00;3.38;;;1.83;;
76477;SDS011;65309;49.790;18.972;2024-02-21T07:09:02;3.35;;;1.77;;
76477;SDS011;65309;49.790;18.972;2024-02-21T07:14:06;5.63;;;1.85;;
76477;SDS011;65309;49.790;18.972;2024-02-21T07:19:08;4.07;;;1.83;;
76477;SDS011;65309;49.790;18.972;2024-02-21T07:24:11;4.78;;;2.25;;
76477;SDS011;65309;49.790;18.972;2024-02-21T07:29:15;4.40;;;2.35;;
76477;SDS011;65309;49.790;18.972;2024-02-21T07:34:17;6.82;;;2.80;;
76477;SDS011;65309;49.790;18.972;2024-02-21T07:39:19;5.72;;;2.70;;
76477;SDS011;65309;49.790;18.972;2024-02-21T07:44:23;5.88;;;3.10;;
76477;SDS011;65309;49.790;18.972;2024-02-21T07:49:25;5.20;;;2.22;;
76477;SDS011;65309;49.790;18.972;2024-02-21T07:54:27;7.78;;;2.25;;
76477;SDS011;65309;49.790;18.972;2024-02-21T07:59:31;4.45;;;2.08;;
76477;SDS011;65309;49.790;18.972;2024-02-21T08:04:33;3.20;;;1.95;;
76477;SDS011;65309;49.790;18.972;2024-02-21T08:09:35;11.25;;;2.58;;
76477;SDS011;65309;49.790;18.972;2024-02-21T08:14:41;5.15;;;2.80;;
76477;SDS011;65309;49.790;18.972;2024-02-21T08:19:43;4.68;;;3.20;;
76477;SDS011;65309;49.790;18.972;2024-02-21T08:24:45;3.95;;;2.58;;
76477;SDS011;65309;49.790;18.972;2024-02-21T08:29:49;6.18;;;2.13;;
76477;SDS011;65309;49.790;18.972;2024-02-21T08:34:51;9.32;;;2.58;;
76477;SDS011;65309;49.790;18.972;2024-02-21T08:39:53;4.55;;;2.22;;
76477;SDS011;65309;49.790;18.972;2024-02-21T08:44:57;7.93;;;2.25;;
76477;SDS011;65309;49.790;18.972;2024-02-21T08:49:59;7.30;;;2.70;;
76477;SDS011;65309;49.790;18.972;2024-02-21T08:55:15;6.05;;;2.65;;
76477;SDS011;65309;49.790;18.972;2024-02-21T09:00:19;6.28;;;2.60;;
76477;SDS011;65309;49.790;18.972;2024-02-21T09:05:26;5.32;;;3.03;;
76477;SDS011;65309;49.790;18.972;2024-02-21T09:10:28;7.78;;;3.60;;
76477;SDS011;65309;49.790;18.972;2024-02-21T09:15:32;6.40;;;3.03;;
76477;SDS011;65309;49.790;18.972;2024-02-21T09:20:36;3.83;;;2.47;;
76477;SDS011;65309;49.790;18.972;2024-02-21T09:25:38;5.28;;;2.78;;
76477;SDS011;65309;49.790;18.972;2024-02-21T09:30:41;5.57;;;2.78;;
76477;SDS011;65309;49.790;18.972;2024-02-21T09:35:44;5.45;;;2.55;;
76477;SDS011;65309;49.790;18.972;2024-02-21T09:40:46;5.75;;;3.03;;
76477;SDS011;65309;49.790;18.972;2024-02-21T09:45:50;6.40;;;3.45;;
76477;SDS011;65309;49.790;18.972;2024-02-21T09:50:58;4.97;;;3.10;;
76477;SDS011;65309;49.790;18.972;2024-02-21T09:56:01;4.47;;;2.53;;
76477;SDS011;65309;49.790;18.972;2024-02-21T10:01:05;7.40;;;3.70;;
76477;SDS011;65309;49.790;18.972;2024-02-21T10:06:26;5.88;;;3.35;;
76477;SDS011;65309;49.790;18.972;2024-02-21T10:11:28;5.82;;;3.38;;
76477;SDS011;65309;49.790;18.972;2024-02-21T10:16:32;10.25;;;3.65;;
76477;SDS011;65309;49.790;18.972;2024-02-21T10:21:35;5.18;;;3.13;;
76477;SDS011;65309;49.790;18.972;2024-02-21T10:26:37;4.80;;;3.13;;
76477;SDS011;65309;49.790;18.972;2024-02-21T10:31:41;6.97;;;3.33;;
76477;SDS011;65309;49.790;18.972;2024-02-21T10:36:43;4.28;;;2.90;;
76477;SDS011;65309;49.790;18.972;2024-02-21T10:41:45;5.70;;;2.88;;
76477;SDS011;65309;49.790;18.972;2024-02-21T10:46:49;7.78;;;3.42;;
76477;SDS011;65309;49.790;18.972;2024-02-21T10:51:52;10.65;;;3.63;;
76477;SDS011;65309;49.790;18.972;2024-02-21T10:56:59;7.28;;;3.63;;
76477;SDS011;65309;49.790;18.972;2024-02-21T11:02:06;5.88;;;3.35;;
76477;SDS011;65309;49.790;18.972;2024-02-21T11:07:09;5.68;;;2.83;;
76477;SDS011;65309;49.790;18.972;2024-02-21T11:12:12;9.10;;;3.10;;
76477;SDS011;65309;49.790;18.972;2024-02-21T11:17:23;6.45;;;4.30;;
76477;SDS011;65309;49.790;18.972;2024-02-21T11:22:29;6.75;;;3.30;;
76477;SDS011;65309;49.790;18.972;2024-02-21T11:27:33;6.35;;;2.50;;
76477;SDS011;65309;49.790;18.972;2024-02-21T11:32:37;4.65;;;2.75;;
76477;SDS011;65309;49.790;18.972;2024-02-21T11:37:39;6.25;;;3.35;;
76477;SDS011;65309;49.790;18.972;2024-02-21T11:42:44;8.15;;;3.40;;
76477;SDS011;65309;49.790;18.972;2024-02-21T11:47:48;4.93;;;2.65;;
76477;SDS011;65309;49.790;18.972;2024-02-21T11:52:51;8.82;;;2.95;;
76477;SDS011;65309;49.790;18.972;2024-02-21T11:57:56;8.05;;;3.15;;
76477;SDS011;65309;49.790;18.972;2024-02-21T12:03:00;8.05;;;3.10;;
76477;SDS011;65309;49.790;18.972;2024-02-21T12:08:04;6.30;;;2.70;;
76477;SDS011;65309;49.790;18.972;2024-02-21T12:13:07;6.63;;;2.92;;
76477;SDS011;65309;49.790;18.972;2024-02-21T12:18:11;7.25;;;2.83;;
76477;SDS011;65309;49.790;18.972;2024-02-21T12:23:13;8.57;;;2.80;;
76477;SDS011;65309;49.790;18.972;2024-02-21T12:28:16;5.13;;;2.83;;
76477;SDS011;65309;49.790;18.972;2024-02-21T12:33:20;4.28;;;2.63;;
76477;SDS011;65309;49.790;18.972;2024-02-21T12:38:23;11.30;;;3.60;;
76477;SDS011;65309;49.790;18.972;2024-02-21T12:43:25;7.88;;;3.35;;
76477;SDS011;65309;49.790;18.972;2024-02-21T12:48:29;7.63;;;2.67;;
76477;SDS011;65309;49.790;18.972;2024-02-21T12:53:31;6.00;;;2.63;;
76477;SDS011;65309;49.790;18.972;2024-02-21T12:58:35;5.63;;;3.33;;
76477;SDS011;65309;49.790;18.972;2024-02-21T13:03:38;10.43;;;3.17;;
76477;SDS011;65309;49.790;18.972;2024-02-21T13:08:41;7.75;;;3.45;;
76477;SDS011;65309;49.790;18.972;2024-02-21T13:13:43;4.50;;;2.53;;
76477;SDS011;65309;49.790;18.972;2024-02-21T13:18:47;4.95;;;2.60;;
76477;SDS011;65309;49.790;18.972;2024-02-21T13:23:50;3.13;;;2.42;;
76477;SDS011;65309;49.790;18.972;2024-02-21T13:28:52;4.68;;;3.30;;
76477;SDS011;65309;49.790;18.972;2024-02-21T13:33:55;4.63;;;2.97;;
76477;SDS011;65309;49.790;18.972;2024-02-21T13:38:57;6.30;;;3.10;;
76477;SDS011;65309;49.790;18.972;2024-02-21T13:44:00;6.05;;;3.53;;
76477;SDS011;65309;49.790;18.972;2024-02-21T13:49:04;5.88;;;2.90;;
76477;SDS011;65309;49.790;18.972;2024-02-21T13:54:10;4.30;;;3.30;;
76477;SDS011;65309;49.790;18.972;2024-02-21T13:59:13;6.10;;;3.58;;
76477;SDS011;65309;49.790;18.972;2024-02-21T14:04:16;5.10;;;2.92;;
76477;SDS011;65309;49.790;18.972;2024-02-21T14:09:18;6.32;;;3.83;;
76477;SDS011;65309;49.790;18.972;2024-02-21T14:14:21;4.15;;;2.83;;
76477;SDS011;65309;49.790;18.972;2024-02-21T14:19:24;5.75;;;3.20;;
76477;SDS011;65309;49.790;18.972;2024-02-21T14:24:26;6.10;;;3.72;;
76477;SDS011;65309;49.790;18.972;2024-02-21T14:29:29;7.93;;;3.13;;
76477;SDS011;65309;49.790;18.972;2024-02-21T14:34:33;7.13;;;4.55;;
76477;SDS011;65309;49.790;18.972;2024-02-21T14:39:35;4.40;;;3.42;;
76477;SDS011;65309;49.790;18.972;2024-02-21T14:44:37;6.75;;;3.25;;
76477;SDS011;65309;49.790;18.972;2024-02-21T14:49:41;4.47;;;2.88;;
76477;SDS011;65309;49.790;18.972;2024-02-21T14:54:43;5.43;;;3.17;;
76477;SDS011;65309;49.790;18.972;2024-02-21T14:59:50;3.42;;;2.58;;
76477;SDS011;65309;49.790;18.972;2024-02-21T15:04:59;5.43;;;2.90;;
76477;SDS011;65309;49.790;18.972;2024-02-21T15:10:01;3.22;;;2.47;;
76477;SDS011;65309;49.790;18.972;2024-02-21T15:15:05;2.92;;;2.33;;
76477;SDS011;65309;49.790;18.972;2024-02-21T15:20:09;5.18;;;2.65;;
76477;SDS011;65309;49.790;18.972;2024-02-21T15:25:12;3.78;;;2.03;;
76477;SDS011;65309;49.790;18.972;2024-02-21T15:30:17;5.30;;;2.30;;
76477;SDS011;65309;49.790;18.972;2024-02-21T15:35:21;3.25;;;2.17;;
76477;SDS011;65309;49.790;18.972;2024-02-21T15:40:24;3.08;;;2.05;;
76477;SDS011;65309;49.790;18.972;2024-02-21T15:45:26;3.67;;;2.35;;
76477;SDS011;65309;49.790;18.972;2024-02-21T15:50:29;4.13;;;2.67;;
76477;SDS011;65309;49.790;18.972;2024-02-21T15:55:32;3.55;;;2.05;;
76477;SDS011;65309;49.790;18.972;2024-02-21T16:00:34;5.40;;;2.67;;
76477;SDS011;65309;49.790;18.972;2024-02-21T16:06:38;2.60;;;1.92;;
76477;SDS011;65309;49.790;18.972;2024-02-21T16:12:02;4.70;;;2.10;;
76477;SDS011;65309;49.790;18.972;2024-02-21T16:17:53;3.22;;;2.45;;
76477;SDS011;65309;49.790;18.972;2024-02-21T16:23:54;3.72;;;2.40;;
76477;SDS011;65309;49.790;18.972;2024-02-21T16:29:07;4.10;;;3.03;;
76477;SDS011;65309;49.790;18.972;2024-02-21T16:34:10;6.20;;;2.70;;
76477;SDS011;65309;49.790;18.972;2024-02-21T16:39:13;6.55;;;2.88;;
76477;SDS011;65309;49.790;18.972;2024-02-21T16:44:16;3.83;;;2.40;;
76477;SDS011;65309;49.790;18.972;2024-02-21T16:49:22;7.18;;;3.47;;
76477;SDS011;65309;49.790;18.972;2024-02-21T16:54:26;8.05;;;2.42;;
76477;SDS011;65309;49.790;18.972;2024-02-21T16:59:28;7.25;;;5.35;;
76477;SDS011;65309;49.790;18.972;2024-02-21T17:04:30;4.63;;;3.13;;
76477;SDS011;65309;49.790;18.972;2024-02-21T17:09:34;6.35;;;3.40;;
76477;SDS011;65309;49.790;18.972;2024-02-21T17:14:38;6.78;;;3.33;;
76477;SDS011;65309;49.790;18.972;2024-02-21T17:19:41;6.97;;;2.88;;
76477;SDS011;65309;49.790;18.972;2024-02-21T17:24:45;11.82;;;3.03;;
76477;SDS011;65309;49.790;18.972;2024-02-21T17:29:47;5.55;;;3.35;;
76477;SDS011;65309;49.790;18.972;2024-02-21T17:34:49;7.38;;;3.55;;
76477;SDS011;65309;49.790;18.972;2024-02-21T17:39:53;6.40;;;3.25;;
76477;SDS011;65309;49.790;18.972;2024-02-21T17:44:55;8.05;;;4.25;;
76477;SDS011;65309;49.790;18.972;2024-02-21T17:49:57;7.90;;;4.78;;
76477;SDS011;65309;49.790;18.972;2024-02-21T17:55:03;9.68;;;4.72;;
76477;SDS011;65309;49.790;18.972;2024-02-21T18:00:07;12.05;;;4.88;;
76477;SDS011;65309;49.790;18.972;2024-02-21T18:05:13;7.25;;;5.00;;
76477;SDS011;65309;49.790;18.972;2024-02-21T18:10:21;5.90;;;3.75;;
76477;SDS011;65309;49.790;18.972;2024-02-21T18:15:24;10.13;;;4.70;;
76477;SDS011;65309;49.790;18.972;2024-02-21T18:20:26;8.52;;;4.72;;
76477;SDS011;65309;49.790;18.972;2024-02-21T18:30:32;7.45;;;5.32;;
76477;SDS011;65309;49.790;18.972;2024-02-21T18:35:34;3.80;;;3.15;;
76477;SDS011;65309;49.790;18.972;2024-02-21T18:40:38;11.10;;;4.30;;
76477;SDS011;65309;49.790;18.972;2024-02-21T18:45:40;6.05;;;3.00;;
76477;SDS011;65309;49.790;18.972;2024-02-21T18:50:43;7.00;;;3.83;;
76477;SDS011;65309;49.790;18.972;2024-02-21T18:55:47;8.23;;;4.20;;
76477;SDS011;65309;49.790;18.972;2024-02-21T19:00:49;8.60;;;3.13;;
76477;SDS011;65309;49.790;18.972;2024-02-21T19:05:52;7.05;;;3.53;;
76477;SDS011;65309;49.790;18.972;2024-02-21T19:10:55;8.50;;;3.25;;
76477;SDS011;65309;49.790;18.972;2024-02-21T19:15:58;8.32;;;3.95;;
76477;SDS011;65309;49.790;18.972;2024-02-21T19:21:00;6.25;;;4.22;;
76477;SDS011;65309;49.790;18.972;2024-02-21T19:26:03;6.80;;;4.18;;
76477;SDS011;65309;49.790;18.972;2024-02-21T19:31:10;5.68;;;3.45;;
76477;SDS011;65309;49.790;18.972;2024-02-21T19:36:14;4.20;;;3.08;;
76477;SDS011;65309;49.790;18.972;2024-02-21T19:41:17;4.10;;;3.22;;
76477;SDS011;65309;49.790;18.972;2024-02-21T19:46:20;7.28;;;3.17;;
76477;SDS011;65309;49.790;18.972;2024-02-21T19:51:22;10.35;;;4.00;;
76477;SDS011;65309;49.790;18.972;2024-02-21T19:56:29;4.97;;;3.67;;
76477;SDS011;65309;49.790;18.972;2024-02-21T20:07:09;4.22;;;3.28;;
76477;SDS011;65309;49.790;18.972;2024-02-21T20:12:12;6.50;;;3.70;;
76477;SDS011;65309;49.790;18.972;2024-02-21T20:17:17;5.07;;;3.55;;
76477;SDS011;65309;49.790;18.972;2024-02-21T20:22:19;4.45;;;3.45;;
76477;SDS011;65309;49.790;18.972;2024-02-21T20:27:23;4.75;;;3.47;;
76477;SDS011;65309;49.790;18.972;2024-02-21T20:32:25;4.45;;;3.10;;
76477;SDS011;65309;49.790;18.972;2024-02-21T20:37:27;5.97;;;3.47;;
76477;SDS011;65309;49.790;18.972;2024-02-21T20:42:31;9.05;;;3.67;;
76477;SDS011;65309;49.790;18.972;2024-02-21T20:47:34;5.45;;;3.50;;
76477;SDS011;65309;49.790;18.972;2024-02-21T20:52:36;5.05;;;2.72;;
76477;SDS011;65309;49.790;18.972;2024-02-21T20:57:40;8.18;;;4.22;;
76477;SDS011;65309;49.790;18.972;2024-02-21T21:02:43;5.80;;;3.33;;
76477;SDS011;65309;49.790;18.972;2024-02-21T21:07:46;6.05;;;3.15;;
76477;SDS011;65309;49.790;18.972;2024-02-21T21:12:50;8.30;;;3.05;;
76477;SDS011;65309;49.790;18.972;2024-02-21T21:17:52;4.22;;;2.42;;
76477;SDS011;65309;49.790;18.972;2024-02-21T21:22:55;6.18;;;3.17;;
76477;SDS011;65309;49.790;18.972;2024-02-21T21:27:58;8.18;;;3.35;;
76477;SDS011;65309;49.790;18.972;2024-02-21T21:33:01;4.85;;;2.95;;
76477;SDS011;65309;49.790;18.972;2024-02-21T21:38:06;4.10;;;2.42;;
76477;SDS011;65309;49.790;18.972;2024-02-21T21:43:09;3.95;;;2.35;;
76477;SDS011;65309;49.790;18.972;2024-02-21T21:48:11;5.85;;;2.17;;
76477;SDS011;65309;49.790;18.972;2024-02-21T21:53:14;5.45;;;3.00;;
76477;SDS011;65309;49.790;18.972;2024-02-21T21:58:18;6.05;;;3.03;;
76477;SDS011;65309;49.790;18.972;2024-02-21T22:03:20;4.88;;;3.60;;
76477;SDS011;65309;49.790;18.972;2024-02-21T22:08:22;4.80;;;2.50;;
76477;SDS011;65309;49.790;18.972;2024-02-21T22:13:26;4.18;;;2.45;;
76477;SDS011;65309;49.790;18.972;2024-02-21T22:18:28;5.57;;;2.13;;
76477;SDS011;65309;49.790;18.972;2024-02-21T22:23:34;5.55;;;2.75;;
76477;SDS011;65309;49.790;18.972;2024-02-21T22:28:42;2.42;;;1.88;;
76477;SDS011;65309;49.790;18.972;2024-02-21T22:33:46;6.95;;;3.88;;
76477;SDS011;65309;49.790;18.972;2024-02-21T22:38:48;4.13;;;2.35;;
76477;SDS011;65309;49.790;18.972;2024-02-21T22:43:51;5.25;;;2.88;;
76477;SDS011;65309;49.790;18.972;2024-02-21T22:48:55;4.20;;;2.22;;
76477;SDS011;65309;49.790;18.972;2024-02-21T22:53:57;6.00;;;2.83;;
76477;SDS011;65309;49.790;18.972;2024-02-21T22:59:00;4.50;;;2.28;;
76477;SDS011;65309;49.790;18.972;2024-02-21T23:04:02;2.70;;;2.00;;
76477;SDS011;65309;49.790;18.972;2024-02-21T23:09:06;3.33;;;2.90;;
76477;SDS011;65309;49.790;18.972;2024-02-21T23:19:13;4.65;;;1.90;;
76477;SDS011;65309;49.790;18.972;2024-02-21T23:24:15;3.55;;;2.45;;
76477;SDS011;65309;49.790;18.972;2024-02-21T23:29:19;8.45;;;3.20;;
76477;SDS011;65309;49.790;18.972;2024-02-21T23:34:21;3.05;;;1.95;;
76477;SDS011;65309;49.790;18.972;2024-02-21T23:39:23;4.80;;;2.20;;
76477;SDS011;65309;49.790;18.972;2024-02-21T23:44:27;2.85;;;1.92;;
76477;SDS011;65309;49.790;18.972;2024-02-21T23:49:29;1.77;;;1.45;;
76477;SDS011;65309;49.790;18.972;2024-02-21T23:54:32;4.72;;;2.17;;
76477;SDS011;65309;49.790;18.972;2024-02-21T23:59:35;2.88;;;1.88;;
